Time;durP1;ratioP1;P1;durP2;ratioP2;P2;SDS_P1;SDS_P2;PMS_P1;PMS_P2;Temp;Humidity;BMP_temperature;BMP_pressure;BME280_temperature;BME280_humidity;BME280_pressure;Samples;Min_cycle;Max_cycle;Signal;HPM_P1;HPM_P2
2023/06/22 00:00:08;;;;;;;5.88;3.38;;;;;;;18.85;70.64;101136.00;4951826;29;20202;-44
2023/06/22 00:02:55;;;;;;;6.78;4.72;;;;;;;18.88;70.54;101139.25;4950618;28;20055;-45
2023/06/22 00:05:42;;;;;;;3.97;2.95;;;;;;;18.89;69.72;101138.03;4951830;28;20051;-44
2023/06/22 00:08:29;;;;;;;4.38;2.30;;;;;;;18.86;68.77;101136.81;4951995;28;20481;-44
2023/06/22 00:11:16;;;;;;;3.00;2.50;;;;;;;18.80;67.68;101139.19;4949935;29;20055;-44
2023/06/22 00:14:04;;;;;;;2.38;2.13;;;;;;;18.72;67.18;101139.53;4936332;29;20666;-44
2023/06/22 00:16:57;;;;;;;2.53;1.95;;;;;;;18.62;66.67;101132.66;4951417;29;20051;-44
2023/06/22 00:19:47;;;;;;;4.15;2.00;;;;;;;18.55;65.93;101132.63;4951126;29;20130;-44
2023/06/22 00:22:38;;;;;;;5.22;2.10;;;;;;;18.50;65.71;101140.59;4949128;29;20056;-44
2023/06/22 00:25:26;;;;;;;5.57;3.00;;;;;;;18.43;65.19;101149.72;4951709;28;20046;-45
2023/06/22 00:28:13;;;;;;;3.78;2.20;;;;;;;18.40;64.84;101153.28;4952728;28;20049;-44
2023/06/22 00:31:00;;;;;;;3.08;1.50;;;;;;;18.35;64.51;101150.84;4954907;29;20066;-46
2023/06/22 00:33:47;;;;;;;3.33;2.10;;;;;;;18.31;64.14;101144.41;4954754;28;20067;-44
2023/06/22 00:36:36;;;;;;;2.83;1.85;;;;;;;18.29;64.03;101152.41;4948774;29;20138;-45
2023/06/22 00:39:23;;;;;;;4.05;1.95;;;;;;;18.22;63.66;101147.53;4955353;29;20051;-45
2023/06/22 00:42:10;;;;;;;4.25;2.28;;;;;;;18.19;63.14;101148.31;4954730;29;20141;-44
2023/06/22 00:44:57;;;;;;;4.25;2.10;;;;;;;18.12;62.98;101147.44;4953697;29;20146;-45
2023/06/22 00:47:44;;;;;;;4.35;2.33;;;;;;;18.07;62.68;101150.59;4954532;29;20139;-44
2023/06/22 00:50:35;;;;;;;4.40;1.50;;;;;;;18.01;62.85;101157.75;4943177;29;20178;-44
2023/06/22 00:53:22;;;;;;;3.17;2.00;;;;;;;17.94;62.85;101160.50;4953925;29;20051;-44
2023/06/22 00:56:12;;;;;;;3.15;2.08;;;;;;;17.86;62.83;101165.22;4953261;28;20179;-46
2023/06/22 00:59:02;;;;;;;5.30;2.42;;;;;;;17.81;62.50;101173.16;4954562;29;20077;-45
2023/06/22 01:01:49;;;;;;;4.72;2.20;;;;;;;17.73;62.56;101174.28;4943628;29;20051;-50
2023/06/22 01:04:38;;;;;;;4.47;2.50;;;;;;;17.72;62.89;101172.66;4953860;28;20043;-45
2023/06/22 01:07:52;;;;;;;6.43;2.88;;;;;;;17.64;62.73;101178.19;4954095;28;20054;-44
2023/06/22 01:11:15;;;;;;;4.20;2.28;;;;;;;17.62;63.14;101179.75;4953960;29;20517;-44
2023/06/22 01:14:06;;;;;;;3.97;2.38;;;;;;;17.58;62.93;101188.09;4948370;29;20114;-44
2023/06/22 01:16:55;;;;;;;2.70;2.40;;;;;;;17.54;62.98;101184.47;4954127;29;20050;-44
2023/06/22 01:19:54;;;;;;;2.42;2.20;;;;;;;17.48;63.07;101179.53;4952985;29;20278;-44
2023/06/22 01:23:19;;;;;;;3.35;2.60;;;;;;;17.38;63.14;101180.22;4950636;29;20102;-45
2023/06/22 01:26:21;;;;;;;3.97;2.67;;;;;;;17.32;63.55;101179.75;4941802;29;20051;-45
2023/06/22 01:29:12;;;;;;;6.07;3.17;;;;;;;17.29;63.90;101177.69;4953944;29;20043;-46
2023/06/22 01:32:01;;;;;;;3.45;2.50;;;;;;;17.25;64.19;101185.25;4953320;29;20075;-44
2023/06/22 01:34:50;;;;;;;2.55;2.33;;;;;;;17.20;64.56;101185.59;4951811;29;20421;-45
2023/06/22 01:37:38;;;;;;;5.85;3.08;;;;;;;17.14;64.95;101181.50;4944073;29;20110;-44
2023/06/22 01:40:26;;;;;;;4.85;2.67;;;;;;;17.12;65.21;101183.88;4954394;29;20134;-44
2023/06/22 01:43:14;;;;;;;8.50;3.15;;;;;;;17.13;65.63;101190.28;4953733;29;20402;-44
2023/06/22 01:46:03;;;;;;;7.85;3.28;;;;;;;17.09;66.14;101198.63;4953460;29;20051;-44
2023/06/22 01:48:50;;;;;;;6.22;3.63;;;;;;;17.10;66.75;101197.44;4952648;29;20055;-44
2023/06/22 01:51:37;;;;;;;6.80;3.75;;;;;;;17.08;67.03;101208.19;4951905;29;20143;-46
2023/06/22 01:54:24;;;;;;;5.70;3.40;;;;;;;17.10;67.47;101202.22;4946744;29;20055;-45
2023/06/22 01:57:12;;;;;;;8.43;4.25;;;;;;;17.10;67.75;101193.84;4953651;29;20623;-45
2023/06/22 02:00:03;;;;;;;5.93;3.72;;;;;;;17.08;68.15;101194.19;4940012;29;20050;-44
2023/06/22 02:02:59;;;;;;;7.28;4.25;;;;;;;17.07;68.75;101197.38;4952370;28;20067;-44
2023/06/22 02:05:54;;;;;;;7.65;5.40;;;;;;;17.07;69.07;101203.78;4952021;29;20049;-44
2023/06/22 02:08:48;;;;;;;5.63;4.07;;;;;;;17.07;69.41;101209.38;4953040;29;20044;-45
2023/06/22 02:11:37;;;;;;;7.18;3.75;;;;;;;17.03;69.80;101219.72;4942065;29;20047;-44
2023/06/22 02:14:25;;;;;;;7.28;4.30;;;;;;;17.00;70.30;101212.06;4953114;29;20106;-45
2023/06/22 02:17:12;;;;;;;9.00;3.88;;;;;;;16.97;70.21;101210.06;4952905;29;20055;-44
2023/06/22 02:20:03;;;;;;;7.88;3.75;;;;;;;16.93;70.46;101212.78;4953305;29;20213;-45
2023/06/22 02:22:50;;;;;;;5.97;2.65;;;;;;;16.92;70.43;101218.72;4936968;29;20117;-44
2023/06/22 02:25:37;;;;;;;7.32;4.40;;;;;;;16.86;70.81;101215.47;4949110;29;20043;-47
2023/06/22 02:28:24;;;;;;;4.07;2.85;;;;;;;16.86;70.79;101215.47;4946509;29;20046;-45
2023/06/22 02:31:11;;;;;;;7.32;3.88;;;;;;;16.85;70.78;101216.66;4952741;29;20062;-45
2023/06/22 02:33:59;;;;;;;6.00;3.25;;;;;;;16.85;70.53;101221.44;4950801;29;20458;-45
2023/06/22 02:36:53;;;;;;;4.10;2.95;;;;;;;16.84;70.88;101220.63;4949249;29;20509;-44
2023/06/22 02:39:40;;;;;;;5.63;3.65;;;;;;;16.87;70.93;101230.25;4952551;29;20075;-44
2023/06/22 02:42:27;;;;;;;4.15;3.20;;;;;;;16.93;71.03;101228.75;4953487;28;20107;-44
2023/06/22 02:45:15;;;;;;;5.47;3.55;;;;;;;17.01;71.17;101227.69;4952475;28;20054;-44
2023/06/22 02:48:02;;;;;;;5.72;4.35;;;;;;;17.07;71.51;101231.78;4951456;29;20137;-45
2023/06/22 02:50:49;;;;;;;11.07;5.75;;;;;;;17.13;71.73;101230.25;4952465;28;20054;-44
2023/06/22 02:53:36;;;;;;;7.15;5.30;;;;;;;17.22;72.14;101232.78;4953167;28;20085;-45
2023/06/22 02:56:25;;;;;;;15.82;7.90;;;;;;;17.29;72.64;101232.88;4952779;28;20401;-46
2023/06/22 02:59:12;;;;;;;17.30;9.70;;;;;;;17.31;73.29;101236.91;4951747;29;20098;-44
2023/06/22 03:01:59;;;;;;;9.85;7.22;;;;;;;17.33;73.81;101240.13;4989532;23;20059;-46
2023/06/22 03:04:49;;;;;;;16.35;8.07;;;;;;;17.38;74.20;101237.00;4952555;28;20043;-45
2023/06/22 03:07:37;;;;;;;11.68;6.90;;;;;;;17.46;74.77;101235.91;4952943;29;20122;-46
2023/06/22 03:10:24;;;;;;;13.15;8.10;;;;;;;17.49;74.71;101231.56;4952722;28;20129;-45
2023/06/22 03:13:11;;;;;;;18.20;8.02;;;;;;;17.52;75.17;101236.41;4952247;28;20118;-45
2023/06/22 03:15:58;;;;;;;14.52;8.75;;;;;;;17.54;75.41;101242.44;4951321;29;20111;-45
2023/06/22 03:18:45;;;;;;;10.15;7.07;;;;;;;17.52;75.75;101242.00;4950876;29;20043;-45
2023/06/22 03:21:32;;;;;;;13.30;7.43;;;;;;;17.48;75.92;101239.13;4951971;29;20416;-45
2023/06/22 03:24:20;;;;;;;9.88;7.22;;;;;;;17.46;76.24;101233.13;4939036;29;20149;-44
2023/06/22 03:27:07;;;;;;;11.65;6.70;;;;;;;17.49;76.64;101237.16;4951895;29;20141;-45
2023/06/22 03:29:56;;;;;;;12.68;7.35;;;;;;;17.49;76.82;101237.97;4951329;29;20487;-44
2023/06/22 03:32:43;;;;;;;12.88;7.00;;;;;;;17.51;77.02;101227.19;4941698;29;20051;-46
2023/06/22 03:35:31;;;;;;;9.45;6.15;;;;;;;17.53;77.34;101233.22;4950106;29;20055;-46
2023/06/22 03:38:18;;;;;;;12.55;7.68;;;;;;;17.55;77.19;101232.88;4950678;28;20051;-45
2023/06/22 03:41:05;;;;;;;13.68;7.30;;;;;;;17.50;77.42;101228.34;4951277;29;20082;-44
2023/06/22 03:43:52;;;;;;;14.55;7.60;;;;;;;17.46;77.92;101235.09;4950368;28;20142;-45
2023/06/22 03:46:39;;;;;;;14.00;7.68;;;;;;;17.44;77.68;101232.69;4950745;29;20153;-46
2023/06/22 03:49:26;;;;;;;11.23;6.63;;;;;;;17.40;77.92;101234.63;4951522;29;20051;-45
2023/06/22 03:52:13;;;;;;;10.75;6.00;;;;;;;17.33;78.16;101239.31;4950959;29;20227;-44
2023/06/22 03:55:00;;;;;;;12.95;7.50;;;;;;;17.27;78.38;101236.06;4951103;29;20494;-45
2023/06/22 03:57:48;;;;;;;9.30;6.65;;;;;;;17.20;78.55;101235.97;4951432;28;20090;-45
2023/06/22 04:00:35;;;;;;;11.10;6.32;;;;;;;17.14;78.77;101242.25;4951709;29;20146;-44
2023/06/22 04:03:22;;;;;;;13.98;7.82;;;;;;;17.09;78.86;101240.59;4953967;29;20059;-45
2023/06/22 04:06:09;;;;;;;16.58;6.57;;;;;;;17.01;79.22;101245.28;4954351;28;20461;-45
2023/06/22 04:08:56;;;;;;;10.90;6.88;;;;;;;16.98;79.23;101243.22;4954722;29;20094;-45
2023/06/22 04:11:43;;;;;;;14.60;7.20;;;;;;;16.95;79.40;101245.97;4945894;29;20055;-45
2023/06/22 04:14:30;;;;;;;10.98;6.53;;;;;;;16.92;79.55;101253.13;4955897;29;20781;-45
2023/06/22 04:17:19;;;;;;;10.90;6.05;;;;;;;16.89;79.81;101251.06;4954984;29;20147;-45
2023/06/22 04:20:07;;;;;;;9.88;7.20;;;;;;;16.87;79.89;101255.41;4941682;29;20043;-45
2023/06/22 04:22:54;;;;;;;11.25;6.18;;;;;;;16.83;79.82;101254.56;4942814;29;20054;-44
2023/06/22 04:25:41;;;;;;;12.35;7.60;;;;;;;16.82;79.88;101264.13;4945173;29;20133;-45
2023/06/22 04:28:28;;;;;;;11.38;7.07;;;;;;;16.80;80.08;101260.91;4955116;29;20043;-44
2023/06/22 04:31:15;;;;;;;11.75;7.30;;;;;;;16.79;80.38;101262.06;4955679;29;20091;-44
2023/06/22 04:34:07;;;;;;;19.63;7.53;;;;;;;16.81;80.33;101273.72;4954427;29;20405;-45
2023/06/22 04:36:55;;;;;;;12.63;6.85;;;;;;;16.82;80.41;101276.13;4952169;29;20110;-44
2023/06/22 04:39:43;;;;;;;12.25;6.88;;;;;;;16.80;80.67;101274.88;4953952;29;20133;-46
2023/06/22 04:42:30;;;;;;;11.65;7.00;;;;;;;16.78;80.67;101280.88;4954153;29;20059;-44
2023/06/22 04:45:17;;;;;;;11.68;8.38;;;;;;;16.77;80.78;101270.03;4954857;29;20587;-45
2023/06/22 04:48:05;;;;;;;11.90;6.80;;;;;;;16.80;80.83;101274.88;4954797;28;20043;-45
2023/06/22 04:50:52;;;;;;;10.95;6.93;;;;;;;16.80;80.88;101277.69;4954606;29;20059;-45
2023/06/22 04:53:41;;;;;;;10.10;6.45;;;;;;;16.80;80.84;101272.09;4953728;29;20146;-44
2023/06/22 04:56:28;;;;;;;9.48;6.30;;;;;;;16.79;80.89;101274.06;4953623;28;20043;-44
2023/06/22 04:59:18;;;;;;;10.32;6.40;;;;;;;16.80;81.28;101274.88;4953584;29;20190;-45
2023/06/22 05:02:08;;;;;;;10.63;6.60;;;;;;;16.79;81.08;101276.06;4944091;29;20053;-44
2023/06/22 05:04:56;;;;;;;7.18;5.78;;;;;;;16.82;81.23;101275.31;4942249;29;20046;-45
2023/06/22 05:07:47;;;;;;;9.57;6.57;;;;;;;16.85;81.28;101280.16;4954297;29;20051;-44
2023/06/22 05:10:35;;;;;;;13.20;6.43;;;;;;;16.87;81.31;101277.78;4954578;29;20054;-44
2023/06/22 05:13:26;;;;;;;8.30;5.63;;;;;;;16.89;81.48;101270.63;4943947;28;20167;-45
2023/06/22 05:16:13;;;;;;;11.15;5.80;;;;;;;16.91;81.51;101257.13;4926190;29;20525;-45
2023/06/22 05:19:03;;;;;;;11.60;6.35;;;;;;;16.92;81.54;101269.09;4953403;29;20051;-45
2023/06/22 05:21:50;;;;;;;8.57;5.00;;;;;;;16.93;81.65;101285.50;4954664;29;20047;-45
2023/06/22 05:24:37;;;;;;;9.45;6.13;;;;;;;16.94;81.76;101287.09;4937679;29;20111;-45
2023/06/22 05:27:24;;;;;;;11.75;5.93;;;;;;;16.95;81.66;101290.72;4952371;29;20059;-45
2023/06/22 05:30:12;;;;;;;11.98;5.93;;;;;;;16.98;81.86;101287.16;4953801;29;20137;-44
2023/06/22 05:32:59;;;;;;;8.57;5.13;;;;;;;16.98;81.98;101284.38;4952892;29;20043;-44
2023/06/22 05:35:46;;;;;;;12.20;6.13;;;;;;;17.03;81.92;101286.84;4948282;29;20047;-46
2023/06/22 05:38:34;;;;;;;7.72;5.53;;;;;;;17.10;82.11;101291.75;4952786;29;20043;-45
2023/06/22 05:41:21;;;;;;;5.53;4.25;;;;;;;17.17;81.99;101281.47;4953872;29;20469;-45
2023/06/22 05:44:08;;;;;;;9.93;5.72;;;;;;;17.19;81.88;101293.09;4943309;29;20054;-44
2023/06/22 05:46:55;;;;;;;7.32;6.00;;;;;;;17.22;81.98;101285.94;4953381;29;21211;-47
2023/06/22 05:49:42;;;;;;;13.27;5.82;;;;;;;17.25;81.90;101287.97;4951926;29;20137;-47
2023/06/22 05:52:29;;;;;;;7.97;5.15;;;;;;;17.28;81.87;101290.84;4943233;29;20055;-46
2023/06/22 05:55:18;;;;;;;9.45;5.82;;;;;;;17.29;82.06;101289.66;4955918;28;20520;-46
2023/06/22 05:58:05;;;;;;;9.05;4.90;;;;;;;17.29;81.92;101284.03;4955387;28;20147;-45
2023/06/22 06:00:52;;;;;;;11.52;5.15;;;;;;;17.30;81.88;101290.47;4953202;28;20050;-45
2023/06/22 06:03:41;;;;;;;9.93;6.07;;;;;;;17.27;82.00;101285.59;4953619;29;20059;-44
2023/06/22 06:06:28;;;;;;;10.20;6.15;;;;;;;17.24;82.08;101292.78;4953857;29;20450;-45
2023/06/22 06:09:15;;;;;;;8.05;5.18;;;;;;;17.22;82.13;101289.56;4953190;29;20055;-49
2023/06/22 06:12:03;;;;;;;10.38;5.85;;;;;;;17.19;82.18;101295.91;4953625;29;20047;-45
2023/06/22 06:14:51;;;;;;;10.65;6.60;;;;;;;17.18;82.21;101294.28;4941379;29;20490;-45
2023/06/22 06:17:52;;;;;;;12.70;5.97;;;;;;;17.21;82.60;101298.34;4953372;29;20043;-46
2023/06/22 06:20:39;;;;;;;7.13;5.18;;;;;;;17.25;82.58;101294.41;4952370;29;20741;-46
2023/06/22 06:23:26;;;;;;;11.38;6.30;;;;;;;17.34;82.50;101292.13;4952358;29;20046;-44
2023/06/22 06:26:16;;;;;;;9.63;5.30;;;;;;;17.42;82.49;101290.25;4952866;28;20142;-45
2023/06/22 06:29:03;;;;;;;11.25;6.05;;;;;;;17.45;82.50;101287.47;4953424;28;20516;-45
2023/06/22 06:31:50;;;;;;;9.45;5.75;;;;;;;17.45;82.20;101298.69;4952197;29;20051;-45
2023/06/22 06:34:40;;;;;;;9.30;5.93;;;;;;;17.46;82.31;101297.50;4953077;29;20117;-45
2023/06/22 06:37:27;;;;;;;9.02;6.75;;;;;;;17.48;82.16;101297.94;4941310;29;20051;-44
2023/06/22 06:40:16;;;;;;;9.15;5.75;;;;;;;17.52;82.20;101292.38;4952616;29;20055;-45
2023/06/22 06:43:03;;;;;;;6.70;5.78;;;;;;;17.55;82.08;101309.25;4946681;29;20058;-47
2023/06/22 06:45:50;;;;;;;8.35;5.38;;;;;;;17.63;82.41;101304.56;4952255;28;20056;-44
2023/06/22 06:48:39;;;;;;;10.57;5.82;;;;;;;17.76;82.30;101305.13;4951513;28;20043;-45
2023/06/22 06:51:26;;;;;;;7.45;5.47;;;;;;;17.82;82.03;101307.22;4951389;29;20182;-45
2023/06/22 06:54:13;;;;;;;10.18;5.88;;;;;;;17.88;82.12;101318.88;4952051;28;20054;-45
2023/06/22 06:57:02;;;;;;;6.72;5.28;;;;;;;17.90;82.19;101311.72;4952850;29;20055;-45
2023/06/22 06:59:50;;;;;;;9.05;4.88;;;;;;;18.00;82.13;101313.84;4951441;29;20051;-45
2023/06/22 07:02:41;;;;;;;9.32;5.68;;;;;;;18.06;81.91;101317.09;4952676;29;20142;-45
2023/06/22 07:05:28;;;;;;;10.97;5.80;;;;;;;18.08;82.12;101320.34;4952292;29;20053;-45
2023/06/22 07:08:15;;;;;;;5.82;4.65;;;;;;;18.13;82.23;101320.00;4940844;29;20091;-44
2023/06/22 07:11:03;;;;;;;9.52;5.18;;;;;;;18.21;82.55;101319.69;4952481;29;20047;-46
2023/06/22 07:13:50;;;;;;;5.63;4.47;;;;;;;18.27;82.73;101316.56;4951403;29;20074;-50
2023/06/22 07:16:38;;;;;;;6.07;4.72;;;;;;;18.39;82.89;101325.50;4951038;29;20181;-45
2023/06/22 07:19:26;;;;;;;6.70;4.50;;;;;;;18.51;83.45;101321.66;4952696;29;20044;-45
2023/06/22 07:22:13;;;;;;;5.22;4.13;;;;;;;18.62;84.04;101319.75;4951999;29;20090;-45
2023/06/22 07:25:01;;;;;;;7.78;4.15;;;;;;;18.70;84.47;101316.66;4951139;29;20058;-45
2023/06/22 07:28:01;;;;;;;6.95;4.13;;;;;;;18.88;nan;101311.19;4952109;28;20062;-45
2023/06/22 07:30:48;;;;;;;6.78;4.22;;;;;;;19.06;84.81;101314.16;4951130;29;20043;-47
2023/06/22 07:33:35;;;;;;;6.45;4.03;;;;;;;19.21;84.84;101318.66;4924265;28;20913;-46
2023/06/22 07:36:22;;;;;;;7.72;4.50;;;;;;;19.48;85.16;101330.53;4951405;28;20063;-48
2023/06/22 07:39:09;;;;;;;5.72;4.15;;;;;;;19.63;84.19;101330.22;4951960;29;20055;-45
2023/06/22 07:41:56;;;;;;;6.72;5.03;;;;;;;19.86;84.64;101327.09;4951945;29;20051;-45
2023/06/22 07:44:43;;;;;;;6.10;3.90;;;;;;;20.34;85.04;101324.91;4952521;29;20165;-45
2023/06/22 07:47:34;;;;;;;7.32;4.13;;;;;;;20.87;84.12;101331.44;4952596;29;20421;-45
2023/06/22 07:50:22;;;;;;;7.65;3.75;;;;;;;21.46;82.64;101343.13;4940650;29;20457;-45
2023/06/22 07:53:09;;;;;;;10.63;3.72;;;;;;;22.18;80.53;101348.97;4951271;29;20171;-45
2023/06/22 07:55:56;;;;;;;3.97;3.13;;;;;;;22.79;76.30;101346.66;4951170;29;20055;-47
2023/06/22 07:58:43;;;;;;;6.10;3.20;;;;;;;23.29;73.07;101347.03;4942316;29;20059;-46
2023/06/22 08:01:31;;;;;;;7.38;3.88;;;;;;;23.13;69.85;101343.94;4951414;29;20051;-46
2023/06/22 08:04:18;;;;;;;4.95;3.00;;;;;;;23.41;68.35;101338.88;4951297;29;20405;-45
2023/06/22 08:07:05;;;;;;;5.30;3.30;;;;;;;23.96;66.26;101347.16;4950768;29;20070;-45
2023/06/22 08:09:52;;;;;;;3.78;2.90;;;;;;;24.68;63.96;101342.16;4939335;29;20050;-45
2023/06/22 08:12:40;;;;;;;4.88;3.17;;;;;;;25.37;61.95;101333.78;4952124;29;20488;-45
2023/06/22 08:15:27;;;;;;;7.00;2.40;;;;;;;26.01;60.04;101350.41;4951232;29;20416;-45
2023/06/22 08:18:16;;;;;;;5.22;2.58;;;;;;;26.31;57.55;101352.25;4952353;29;20070;-45
2023/06/22 08:21:03;;;;;;;4.70;2.38;;;;;;;26.77;55.63;101354.03;4951652;29;20145;-45
2023/06/22 08:23:52;;;;;;;4.80;3.05;;;;;;;27.22;54.23;101350.53;4951021;29;20130;-45
2023/06/22 08:26:39;;;;;;;3.95;2.95;;;;;;;27.63;52.52;101353.53;4949898;29;20075;-46
2023/06/22 08:29:26;;;;;;;3.35;2.63;;;;;;;27.91;51.43;101355.56;4951680;29;20445;-46
2023/06/22 08:32:13;;;;;;;4.75;2.50;;;;;;;28.26;50.04;101360.28;4951957;28;20071;-45
2023/06/22 08:35:00;;;;;;;4.30;2.65;;;;;;;28.61;48.98;101363.28;4951642;28;20058;-45
2023/06/22 08:37:51;;;;;;;4.10;2.80;;;;;;;28.80;47.75;101359.47;4951869;29;20051;-46
2023/06/22 08:40:38;;;;;;;4.75;2.53;;;;;;;29.00;46.98;101357.16;4950008;29;20051;-46
2023/06/22 08:43:26;;;;;;;3.90;2.33;;;;;;;29.13;46.38;101372.19;4951321;29;20047;-46
2023/06/22 08:46:13;;;;;;;4.32;2.50;;;;;;;29.53;45.15;101363.94;4951954;29;20130;-48
2023/06/22 08:49:00;;;;;;;4.10;2.42;;;;;;;29.66;44.29;101358.19;4952079;28;20122;-46
2023/06/22 08:51:49;;;;;;;3.53;2.83;;;;;;;29.64;43.13;101366.41;4954849;28;20043;-46
2023/06/22 08:54:36;;;;;;;3.03;2.38;;;;;;;29.83;42.81;101363.31;4954168;29;20082;-46
2023/06/22 08:57:23;;;;;;;6.45;2.90;;;;;;;30.01;42.03;101368.34;4952079;28;20142;-46
2023/06/22 09:00:16;;;;;;;5.68;2.08;;;;;;;30.05;41.55;101357.59;4943076;29;20142;-47
2023/06/22 09:03:04;;;;;;;7.05;3.10;;;;;;;30.12;41.45;101363.03;4954550;29;20051;-46
2023/06/22 09:05:51;;;;;;;4.10;2.40;;;;;;;30.10;40.94;101360.63;4954432;29;20054;-48
2023/06/22 09:08:39;;;;;;;3.35;2.42;;;;;;;30.09;40.52;101359.06;4954818;29;20113;-47
2023/06/22 09:11:26;;;;;;;5.20;2.22;;;;;;;30.19;40.18;101362.75;4942649;29;20133;-46
2023/06/22 09:14:13;;;;;;;4.65;2.45;;;;;;;30.26;40.30;101371.09;4953701;28;20043;-47
2023/06/22 09:17:00;;;;;;;4.50;3.17;;;;;;;30.45;39.60;101372.81;4954312;29;20102;-45
2023/06/22 09:19:47;;;;;;;5.47;2.97;;;;;;;30.62;39.29;101374.19;4954502;28;20082;-48
2023/06/22 09:22:34;;;;;;;5.20;2.75;;;;;;;30.63;39.05;101372.91;4954256;29;20047;-46
2023/06/22 09:25:21;;;;;;;3.40;2.95;;;;;;;30.67;38.75;101372.75;4954311;29;20054;-45
2023/06/22 09:28:08;;;;;;;5.80;3.35;;;;;;;30.06;39.05;101362.03;4953704;29;20054;-47
2023/06/22 09:30:58;;;;;;;3.65;2.40;;;;;;;29.65;39.73;101368.03;4940923;29;20146;-46
2023/06/22 09:33:46;;;;;;;4.60;3.13;;;;;;;29.37;40.12;101353.47;4953268;29;20055;-45
2023/06/22 09:36:33;;;;;;;7.88;2.65;;;;;;;29.34;40.36;101360.09;4953487;29;20055;-45
2023/06/22 09:39:20;;;;;;;3.50;2.80;;;;;;;29.60;40.01;101357.19;4953197;29;20055;-45
2023/06/22 09:42:07;;;;;;;7.28;3.15;;;;;;;29.62;39.47;101352.63;4939798;29;20528;-47
2023/06/22 09:44:54;;;;;;;4.38;2.33;;;;;;;29.67;40.05;101348.38;4953506;29;20605;-46
2023/06/22 09:47:42;;;;;;;10.48;3.00;;;;;;;29.91;39.40;101353.22;4952756;29;20047;-45
2023/06/22 09:50:29;;;;;;;3.08;2.53;;;;;;;29.96;39.15;101355.47;4943218;29;20059;-46
2023/06/22 09:53:17;;;;;;;3.33;2.20;;;;;;;29.10;39.77;101344.59;4953465;29;20052;-46
2023/06/22 09:56:06;;;;;;;4.63;3.33;;;;;;;28.90;40.28;101349.75;4953706;29;20055;-47
2023/06/22 09:58:53;;;;;;;4.53;2.20;;;;;;;28.05;40.69;101346.66;4944872;28;20470;-46
2023/06/22 10:01:42;;;;;;;6.07;2.53;;;;;;;27.91;42.01;101354.75;4941878;29;20059;-46
2023/06/22 10:04:29;;;;;;;6.10;2.22;;;;;;;28.44;41.42;101353.22;4953828;28;20075;-46
2023/06/22 10:07:17;;;;;;;2.72;2.05;;;;;;;28.57;40.98;101354.06;4953322;29;20050;-45
2023/06/22 10:10:04;;;;;;;2.97;2.08;;;;;;;28.78;40.96;101354.19;4943408;29;20058;-47
2023/06/22 10:13:08;;;;;;;5.32;1.83;;;;;;;28.65;40.76;101358.28;4953116;29;20497;-45
2023/06/22 10:15:56;;;;;;;4.05;2.10;;;;;;;28.30;40.92;101360.94;4953267;28;20047;-45
2023/06/22 10:18:43;;;;;;;5.35;2.50;;;;;;;27.87;41.50;101366.28;4953147;29;20549;-45
2023/06/22 10:21:30;;;;;;;8.70;3.05;;;;;;;27.58;42.02;101362.59;4943860;29;20047;-46
2023/06/22 10:24:17;;;;;;;5.03;2.33;;;;;;;27.74;42.22;101369.06;4953296;29;20078;-45
2023/06/22 10:27:04;;;;;;;3.08;2.28;;;;;;;27.99;42.07;101368.34;4952853;29;20062;-45
2023/06/22 10:29:52;;;;;;;2.45;1.80;;;;;;;28.11;41.87;101364.00;4953108;29;20493;-45
2023/06/22 10:32:39;;;;;;;3.30;2.03;;;;;;;27.98;41.53;101366.78;4952932;29;20489;-45
2023/06/22 10:35:27;;;;;;;4.18;1.98;;;;;;;27.83;42.13;101373.31;4951278;28;20058;-45
2023/06/22 10:38:14;;;;;;;4.43;2.60;;;;;;;27.65;43.09;101359.56;4953072;29;20098;-45
2023/06/22 10:41:02;;;;;;;4.30;1.83;;;;;;;27.42;42.67;101363.44;4944454;28;20095;-46
2023/06/22 10:43:49;;;;;;;2.50;1.75;;;;;;;26.94;43.37;101367.03;4940195;29;20536;-45
2023/06/22 10:46:36;;;;;;;3.42;1.88;;;;;;;26.60;43.62;101366.59;4951647;29;20416;-46
2023/06/22 10:49:23;;;;;;;2.00;1.60;;;;;;;26.45;44.41;101362.50;4952560;28;20532;-45
2023/06/22 10:52:10;;;;;;;4.55;2.25;;;;;;;26.13;44.83;101356.69;4942621;29;20524;-45
2023/06/22 10:54:57;;;;;;;4.10;2.00;;;;;;;25.84;45.35;101362.13;4952655;29;20055;-45
2023/06/22 10:57:46;;;;;;;5.45;2.28;;;;;;;25.22;46.19;101362.81;4949189;29;20497;-45
2023/06/22 11:00:34;;;;;;;2.75;2.10;;;;;;;24.95;46.67;101360.00;4951939;29;20047;-46
2023/06/22 11:03:21;;;;;;;4.03;1.77;;;;;;;24.85;47.18;101358.13;4940586;29;20050;-45
2023/06/22 11:06:08;;;;;;;4.80;1.90;;;;;;;24.84;47.55;101353.69;4938453;29;20079;-45
2023/06/22 11:08:55;;;;;;;4.60;2.25;;;;;;;24.88;47.62;101356.47;4952194;29;20047;-45
2023/06/22 11:11:58;;;;;;;4.13;2.47;;;;;;;24.78;47.87;101356.19;4939860;29;20059;-45
2023/06/22 11:14:46;;;;;;;3.75;2.05;;;;;;;24.62;48.61;101363.72;4951345;29;20510;-45
2023/06/22 11:17:33;;;;;;;3.85;2.75;;;;;;;24.44;48.82;101363.94;4951243;29;20075;-45
2023/06/22 11:20:20;;;;;;;3.63;2.08;;;;;;;24.18;49.28;101359.03;4938948;29;20051;-45
2023/06/22 11:23:07;;;;;;;6.60;2.15;;;;;;;24.06;50.15;101371.72;4938087;29;20083;-47
2023/06/22 11:25:55;;;;;;;3.50;2.30;;;;;;;24.03;50.34;101381.03;4952236;29;20059;-45
2023/06/22 11:28:42;;;;;;;4.40;2.03;;;;;;;23.86;50.74;101382.03;4951210;29;20043;-45
2023/06/22 11:31:29;;;;;;;5.80;2.60;;;;;;;23.78;50.62;101380.50;4951436;29;20498;-46
2023/06/22 11:34:16;;;;;;;4.72;2.25;;;;;;;23.69;50.99;101376.56;4941137;29;20055;-47
2023/06/22 11:37:03;;;;;;;6.05;3.22;;;;;;;23.64;51.06;101370.13;4950725;29;20050;-45
2023/06/22 11:39:51;;;;;;;5.00;2.33;;;;;;;23.63;51.11;101376.22;4949839;29;20409;-45
2023/06/22 11:42:52;;;;;;;4.25;2.17;;;;;;;23.63;51.60;101377.03;4951317;29;20058;-45
2023/06/22 11:45:39;;;;;;;8.20;2.60;;;;;;;23.79;51.63;101370.81;4951827;29;20126;-46
2023/06/22 11:48:26;;;;;;;3.35;1.58;;;;;;;23.85;51.85;101365.50;4949754;29;20059;-45
2023/06/22 11:51:13;;;;;;;2.38;1.60;;;;;;;23.84;51.89;101373.16;4951204;29;20090;-45
2023/06/22 11:54:01;;;;;;;3.60;2.30;;;;;;;23.63;51.97;101371.38;4952089;29;20047;-45
2023/06/22 11:56:48;;;;;;;7.90;1.88;;;;;;;23.58;52.04;101363.34;4939745;28;20532;-45
2023/06/22 11:59:35;;;;;;;5.75;2.65;;;;;;;23.48;52.61;101358.56;4959891;28;20142;-46
2023/06/22 12:02:22;;;;;;;4.30;1.65;;;;;;;23.58;52.78;101363.34;4952135;29;20055;-45
2023/06/22 12:05:10;;;;;;;6.70;2.50;;;;;;;23.66;52.99;101375.38;4951559;29;20051;-45
2023/06/22 12:07:57;;;;;;;3.80;2.13;;;;;;;23.57;53.43;101373.03;4951312;29;20061;-45
2023/06/22 12:10:44;;;;;;;3.00;2.03;;;;;;;23.42;53.57;101371.56;4951260;28;20055;-45
2023/06/22 12:13:32;;;;;;;3.03;2.30;;;;;;;23.42;53.85;101379.25;4950593;28;20047;-45
2023/06/22 12:16:21;;;;;;;6.18;2.88;;;;;;;23.28;54.10;101377.31;4924734;29;20075;-45
2023/06/22 12:19:08;;;;;;;7.05;2.72;;;;;;;23.20;54.61;101378.59;4950180;28;20046;-45
2023/06/22 12:21:55;;;;;;;3.97;2.53;;;;;;;23.12;55.10;101382.69;4949893;29;20501;-45
2023/06/22 12:24:42;;;;;;;5.43;3.00;;;;;;;23.24;55.14;101373.72;4943724;29;20081;-45
2023/06/22 12:27:30;;;;;;;4.30;3.70;;;;;;;23.38;54.89;101384.91;4940331;29;20087;-45
2023/06/22 12:30:17;;;;;;;5.30;2.90;;;;;;;23.48;55.11;101384.00;4954799;28;20157;-45
2023/06/22 12:33:04;;;;;;;5.00;3.05;;;;;;;23.88;53.92;101373.13;4955315;29;20083;-46
2023/06/22 12:35:51;;;;;;;3.33;2.25;;;;;;;24.12;54.05;101374.88;4954904;29;20059;-45
2023/06/22 12:38:38;;;;;;;4.25;2.83;;;;;;;24.34;53.80;101373.41;4952784;28;20198;-45
2023/06/22 12:41:25;;;;;;;3.40;2.97;;;;;;;24.22;53.92;101376.81;4954578;29;20039;-48
2023/06/22 12:44:12;;;;;;;7.15;2.60;;;;;;;24.18;54.14;101382.50;4955602;29;20050;-45
2023/06/22 12:47:00;;;;;;;3.60;1.90;;;;;;;24.29;53.28;101376.69;4955124;29;20043;-46
2023/06/22 12:49:47;;;;;;;4.55;2.58;;;;;;;24.43;52.63;101385.00;4955100;29;20106;-45
2023/06/22 12:52:38;;;;;;;3.95;2.05;;;;;;;24.57;51.87;101386.84;4953888;28;20062;-45
2023/06/22 12:55:25;;;;;;;2.92;1.67;;;;;;;24.57;51.38;101381.19;4943289;28;20055;-45
2023/06/22 12:58:12;;;;;;;2.67;1.75;;;;;;;24.53;50.22;101378.41;4954791;29;20051;-46
2023/06/22 13:01:00;;;;;;;4.45;1.98;;;;;;;24.60;50.24;101372.63;4954305;29;20055;-45